createdAt,value
2023-02-24T00:02:01.896Z,96730.25
2023-02-24T00:04:30.700Z,96726.78
2023-02-24T00:06:57.423Z,96724.78
2023-02-24T00:09:26.539Z,96728.59
2023-02-24T00:12:05.201Z,96726.78
2023-02-24T00:14:34.832Z,96720.81
2023-02-24T00:17:02.000Z,96725.13
2023-02-24T00:19:34.015Z,96729.41
2023-02-24T00:22:05.639Z,96719.81
2023-02-24T00:24:32.623Z,96714.53
2023-02-24T00:27:02.052Z,96718.16
2023-02-24T00:29:29.868Z,96707.56
2023-02-24T00:32:02.591Z,96706.72
2023-02-24T00:34:31.670Z,96700.44
2023-02-24T00:36:59.586Z,96704.09
2023-02-24T00:39:34.608Z,96696.13
2023-02-24T00:42:06.676Z,96700.44
2023-02-24T00:44:36.242Z,96701.59
2023-02-24T00:47:05.297Z,96699.94
2023-02-24T00:49:33.022Z,96695.47
2023-02-24T00:52:00.073Z,96699.94
2023-02-24T00:54:28.494Z,96699.94
2023-02-24T00:56:56.377Z,96703.41
2023-02-24T00:59:24.143Z,96698.28
2023-02-24T01:01:51.350Z,96705.41
2023-02-24T01:04:19.143Z,96700.25
2023-02-24T01:06:49.020Z,96698.44
2023-02-24T01:09:19.936Z,96691.50
2023-02-24T01:12:07.819Z,96682.72
2023-02-24T01:14:35.655Z,96668.81
2023-02-24T01:17:04.792Z,96667.81
2023-02-24T01:19:32.750Z,96672.13
2023-02-24T01:22:04.389Z,96670.47
2023-02-24T01:24:34.031Z,96666.00
2023-02-24T01:27:00.678Z,96666.16
2023-02-24T01:29:27.566Z,96663.34
2023-02-24T01:31:58.107Z,96654.75
2023-02-24T01:34:26.892Z,96654.91
2023-02-24T01:36:54.234Z,96651.09
2023-02-24T01:39:21.092Z,96650.44
2023-02-24T01:41:53.145Z,96648.78
2023-02-24T01:44:22.523Z,96647.94
2023-02-24T01:46:52.388Z,96646.13
2023-02-24T01:49:46.809Z,96640.84
2023-02-24T01:52:20.096Z,96634.88
2023-02-24T01:54:55.264Z,96624.28
2023-02-24T01:57:24.344Z,96626.75
2023-02-24T01:59:54.697Z,96621.78
2023-02-24T02:02:23.184Z,96622.78
2023-02-24T02:04:57.135Z,96621.97
2023-02-24T02:07:26.776Z,96621.63
2023-02-24T02:09:55.149Z,96614.69
2023-02-24T02:12:24.324Z,96625.28
2023-02-24T02:14:54.854Z,96615.66
2023-02-24T02:17:37.037Z,96604.41
2023-02-24T02:20:16.222Z,96611.38
2023-02-24T02:23:11.048Z,96602.75
2023-02-24T02:26:18.995Z,96607.88
2023-02-24T02:28:54.699Z,96622.94
2023-02-24T02:31:30.216Z,96625.44
2023-02-24T02:34:00.103Z,96614.34
2023-02-24T02:36:54.940Z,96613.53
2023-02-24T02:39:34.080Z,96617.97
2023-02-24T02:42:35.937Z,96607.41
2023-02-24T02:45:25.803Z,96610.03
2023-02-24T02:47:59.322Z,96601.44
2023-02-24T02:50:33.073Z,96607.41
2023-02-24T02:53:03.495Z,96610.19
2023-02-24T02:55:46.769Z,96612.03
2023-02-24T02:58:17.673Z,96600.94
2023-02-24T03:01:04.790Z,96607.22
2023-02-24T03:03:48.394Z,96619.63
2023-02-24T03:06:19.329Z,96606.41
2023-02-24T03:08:53.543Z,96586.88
2023-02-24T03:11:20.972Z,96584.38
2023-02-24T03:13:51.097Z,96588.69
2023-02-24T03:16:19.265Z,96581.75
2023-02-24T03:18:53.384Z,96573.78
2023-02-24T03:21:33.309Z,96566.00
2023-02-24T03:24:02.475Z,96568.66
2023-02-24T03:26:52.535Z,96561.53
2023-02-24T03:29:30.597Z,96565.19
2023-02-24T03:32:06.211Z,96560.88
2023-02-24T03:34:55.439Z,96556.59
2023-02-24T03:37:28.343Z,96563.38
2023-02-24T03:39:59.713Z,96561.72
2023-02-24T03:42:32.780Z,96562.72
2023-02-24T03:45:00.138Z,96569.97
2023-02-24T03:47:27.104Z,96569.00
2023-02-24T03:49:53.827Z,96562.88
2023-02-24T03:52:49.034Z,96563.69
2023-02-24T03:55:21.434Z,96568.16
2023-02-24T03:58:00.433Z,96566.50
2023-02-24T04:00:38.726Z,96561.38
2023-02-24T04:03:14.057Z,96560.56
2023-02-24T04:05:51.017Z,96562.22
2023-02-24T04:08:20.307Z,96552.78
2023-02-24T04:10:57.510Z,96553.44
2023-02-24T04:13:49.553Z,96558.91
2023-02-24T04:16:36.563Z,96551.13
2023-02-24T04:19:14.160Z,96549.47
2023-02-24T04:21:43.464Z,96548.63
2023-02-24T04:24:15.760Z,96552.94
2023-02-24T04:26:45.742Z,96552.13
2023-02-24T04:29:17.820Z,96556.41
2023-02-24T04:31:48.630Z,96553.75
2023-02-24T04:34:20.178Z,96551.28
2023-02-24T04:36:50.698Z,96550.66
2023-02-24T04:39:19.515Z,96557.56
2023-02-24T04:41:49.808Z,96552.63
2023-02-24T04:44:17.888Z,96551.81
2023-02-24T04:46:47.698Z,96542.88
2023-02-24T04:49:14.409Z,96542.88
2023-02-24T04:51:44.597Z,96532.44
2023-02-24T04:54:15.786Z,96523.53
2023-02-24T04:56:42.978Z,96520.03
2023-02-24T04:59:10.494Z,96513.94
2023-02-24T05:01:42.193Z,96511.44
2023-02-24T05:04:09.164Z,96517.22
2023-02-24T05:06:35.931Z,96502.50
2023-02-24T05:09:11.185Z,96500.19
2023-02-24T05:11:38.169Z,96495.06
2023-02-24T05:14:08.153Z,96497.53
2023-02-24T05:16:37.892Z,96493.91
2023-02-24T05:19:23.203Z,96497.72
2023-02-24T05:21:56.367Z,96500.19
2023-02-24T05:24:29.422Z,96494.06
2023-02-24T05:27:00.572Z,96497.72
2023-02-24T05:29:29.666Z,96498.53
2023-02-24T05:32:00.777Z,96496.88
2023-02-24T05:34:30.665Z,96480.34
2023-02-24T05:36:59.647Z,96480.34
2023-02-24T05:39:38.328Z,96470.91
2023-02-24T05:42:09.027Z,96463.13
2023-02-24T05:44:44.170Z,96469.09
2023-02-24T05:47:14.396Z,96473.41
2023-02-24T05:49:48.215Z,96465.28
2023-02-24T05:52:15.101Z,96468.94
2023-02-24T05:54:45.257Z,96463.97
2023-02-24T05:57:19.827Z,96466.63
2023-02-24T05:59:56.061Z,96464.63
2023-02-24T06:02:29.477Z,96461.31
2023-02-24T06:05:14.265Z,96464.97
2023-02-24T06:07:49.460Z,96458.84
2023-02-24T06:10:25.943Z,96461.66
2023-02-24T06:12:55.215Z,96452.88
2023-02-24T06:15:45.317Z,96456.38
2023-02-24T06:18:30.423Z,96458.19
2023-02-24T06:21:19.475Z,96451.22
2023-02-24T06:23:46.625Z,96449.75
2023-02-24T06:26:13.488Z,96454.88
2023-02-24T06:28:43.673Z,96451.41
2023-02-24T06:31:12.062Z,96453.22
2023-02-24T06:33:39.014Z,96457.69
2023-02-24T06:36:06.689Z,96461.00
2023-02-24T06:38:40.481Z,96463.97
2023-02-24T06:41:13.539Z,96464.63
2023-02-24T06:43:46.488Z,96469.09
2023-02-24T06:46:21.045Z,96457.84
2023-02-24T06:48:50.417Z,96465.78
2023-02-24T06:51:17.644Z,96456.38
2023-02-24T06:53:44.828Z,96462.31
2023-02-24T06:56:18.270Z,96463.13
2023-02-24T06:58:47.477Z,96456.03
2023-02-24T07:01:17.335Z,96454.38
2023-02-24T07:04:08.370Z,96456.03
2023-02-24T07:06:38.590Z,96458.34
2023-02-24T07:09:11.074Z,96462.97
2023-02-24T07:11:48.598Z,96461.97
2023-02-24T07:14:15.774Z,96453.38
2023-02-24T07:16:45.903Z,96451.41
2023-02-24T07:19:15.683Z,96452.41
2023-02-24T07:21:46.734Z,96445.94
2023-02-24T07:24:20.713Z,96446.28
2023-02-24T07:26:51.975Z,96445.28
2023-02-24T07:29:19.331Z,96445.13
2023-02-24T07:31:49.208Z,96440.16
2023-02-24T07:34:24.100Z,96448.91
2023-02-24T07:36:55.322Z,96442.81
2023-02-24T07:39:23.327Z,96441.81
2023-02-24T07:41:53.304Z,96435.84
2023-02-24T07:44:21.294Z,96426.75
2023-02-24T07:46:49.368Z,96418.66
2023-02-24T07:49:23.475Z,96422.28
2023-02-24T07:51:52.734Z,96427.59
2023-02-24T07:54:21.450Z,96419.66
2023-02-24T07:56:59.156Z,96426.44
2023-02-24T07:59:32.624Z,96414.19
2023-02-24T08:02:00.682Z,96411.38
2023-02-24T08:04:30.700Z,96411.38
2023-02-24T08:06:59.208Z,96419.47
2023-02-24T08:09:49.488Z,96413.38
2023-02-24T08:12:22.209Z,96408.91
2023-02-24T08:14:51.658Z,96403.59
2023-02-24T08:17:26.924Z,96404.44
2023-02-24T08:20:15.872Z,96404.44
2023-02-24T08:22:47.137Z,96402.44
2023-02-24T08:25:19.064Z,96390.19
2023-02-24T08:28:06.986Z,96393.34
2023-02-24T08:30:45.317Z,96394.34
2023-02-24T08:33:19.010Z,96385.56
2023-02-24T08:35:45.778Z,96378.47
2023-02-24T08:38:18.906Z,96386.22
2023-02-24T08:40:51.771Z,96382.94
2023-02-24T08:43:25.242Z,96382.25
2023-02-24T08:46:01.376Z,96381.94
2023-02-24T08:48:37.336Z,96367.03
2023-02-24T08:51:16.007Z,96381.28
2023-02-24T08:53:47.039Z,96365.41
2023-02-24T08:56:24.284Z,96364.41
2023-02-24T08:59:05.929Z,96383.75
2023-02-24T09:01:35.742Z,96377.81
2023-02-24T09:04:19.768Z,96366.22
2023-02-24T09:07:10.690Z,96380.28
2023-02-24T09:09:42.549Z,96369.34
2023-02-24T09:12:22.032Z,96365.72
2023-02-24T09:14:50.120Z,96360.41
2023-02-24T09:17:20.783Z,96355.78
2023-02-24T09:19:52.240Z,96352.97
2023-02-24T09:22:40.940Z,96352.47
2023-02-24T09:25:18.937Z,96361.75
2023-02-24T09:28:08.173Z,96350.50
2023-02-24T09:30:38.935Z,96345.84
2023-02-24T09:33:27.415Z,96356.63
2023-02-24T09:36:20.505Z,96348.69
2023-02-24T09:38:59.342Z,96353.78
2023-02-24T09:41:32.720Z,96343.03
2023-02-24T09:44:07.781Z,96342.88
2023-02-24T09:46:40.941Z,96338.41
2023-02-24T09:49:17.930Z,96339.88
2023-02-24T09:51:45.231Z,96335.59
2023-02-24T09:54:17.354Z,96325.00
2023-02-24T09:57:08.510Z,96323.19
2023-02-24T09:59:40.937Z,96324.63
2023-02-24T10:02:46.724Z,96327.09
2023-02-24T10:05:27.450Z,96325.81
2023-02-24T10:07:57.256Z,96307.47
2023-02-24T10:10:30.193Z,96316.06
2023-02-24T10:13:14.003Z,96308.13
2023-02-24T10:15:59.506Z,96304.47
2023-02-24T10:18:41.307Z,96306.09
2023-02-24T10:21:30.731Z,96302.47
2023-02-24T10:24:14.524Z,96298.81
2023-02-24T10:27:00.672Z,96298.16
2023-02-24T10:30:11.328Z,96300.19
2023-02-24T10:32:52.807Z,96283.94
2023-02-24T10:35:22.294Z,96283.94
2023-02-24T10:37:49.385Z,96276.81
2023-02-24T10:40:26.538Z,96277.47
2023-02-24T10:43:10.609Z,96275.16
2023-02-24T10:45:45.445Z,96267.72
2023-02-24T10:48:40.799Z,96266.72
2023-02-24T10:51:20.427Z,96262.88
2023-02-24T10:54:08.572Z,96252.94
2023-02-24T10:56:45.059Z,96248.31
2023-02-24T10:59:38.984Z,96246.66
2023-02-24T11:02:24.961Z,96238.25
2023-02-24T11:05:00.139Z,96242.88
2023-02-24T11:07:53.910Z,96234.28
2023-02-24T11:10:26.485Z,96229.66
2023-02-24T11:13:13.826Z,96230.66
2023-02-24T11:16:12.741Z,96228.81
2023-02-24T11:18:46.327Z,96215.59
2023-02-24T11:21:14.496Z,96208.13
2023-02-24T11:23:53.189Z,96212.06
2023-02-24T11:26:23.995Z,96203.97
2023-02-24T11:28:59.240Z,96194.66
2023-02-24T11:31:34.220Z,96183.59
2023-02-24T11:34:11.283Z,96178.13
2023-02-24T11:37:02.937Z,96165.72
2023-02-24T11:39:45.684Z,96171.84
2023-02-24T11:42:16.981Z,96164.91
2023-02-24T11:45:09.541Z,96149.00
2023-02-24T11:47:45.425Z,96152.84
2023-02-24T11:50:28.933Z,96149.19
2023-02-24T11:53:03.480Z,96142.06
2023-02-24T11:55:38.698Z,96129.00
2023-02-24T11:58:34.427Z,96126.19
2023-02-24T12:01:04.986Z,96128.00
2023-02-24T12:03:57.606Z,96118.25
2023-02-24T12:06:31.041Z,96116.59
2023-02-24T12:09:07.855Z,96109.66
2023-02-24T12:11:46.071Z,96101.53
2023-02-24T12:14:23.434Z,96101.34
2023-02-24T12:16:58.994Z,96104.81
2023-02-24T12:19:33.365Z,96101.81
2023-02-24T12:22:07.878Z,96108.13
2023-02-24T12:24:36.785Z,96100.88
2023-02-24T12:27:19.738Z,96098.22
2023-02-24T12:30:07.117Z,96093.59
2023-02-24T12:33:00.279Z,96085.75
2023-02-24T12:35:40.366Z,96078.00
2023-02-24T12:38:25.284Z,96077.00
2023-02-24T12:41:14.528Z,96068.22
2023-02-24T12:44:37.073Z,96069.22
2023-02-24T12:47:15.501Z,96054.16
2023-02-24T12:49:45.009Z,96051.53
2023-02-24T12:52:32.637Z,96055.00
2023-02-24T12:55:14.952Z,96048.69
2023-02-24T12:58:21.248Z,96051.34
2023-02-24T13:00:57.665Z,96052.16
2023-02-24T13:03:42.506Z,96040.94
2023-02-24T13:06:18.779Z,96031.16
2023-02-24T13:08:53.598Z,96028.50
2023-02-24T13:11:36.482Z,96026.03
2023-02-24T13:14:24.698Z,96024.03
2023-02-24T13:16:51.385Z,96023.41
2023-02-24T13:19:28.376Z,96022.41
2023-02-24T13:22:13.257Z,96016.47
2023-02-24T13:24:58.212Z,96007.34
2023-02-24T13:27:30.487Z,96002.41
2023-02-24T13:30:01.587Z,96003.22
2023-02-24T13:32:36.083Z,95994.16
2023-02-24T13:35:17.066Z,95994.44
2023-02-24T13:37:46.073Z,95987.06
2023-02-24T13:40:19.399Z,95975.22
2023-02-24T13:42:58.292Z,95971.31
2023-02-24T13:45:33.519Z,95960.81
2023-02-24T13:48:33.541Z,95960.97
2023-02-24T13:51:26.798Z,95953.59
2023-02-24T13:54:31.319Z,95948.28
2023-02-24T13:57:26.023Z,95949.09
2023-02-24T13:59:57.549Z,95946.66
2023-02-24T14:02:30.232Z,95949.47
2023-02-24T14:05:00.186Z,95941.25
2023-02-24T14:07:35.041Z,95940.44
2023-02-24T14:10:07.584Z,95943.06
2023-02-24T14:12:35.833Z,95932.66
2023-02-24T14:15:04.438Z,95919.25
2023-02-24T14:17:37.052Z,95913.75
2023-02-24T14:20:09.819Z,95902.16
2023-02-24T14:22:48.725Z,95907.28
2023-02-24T14:25:17.091Z,95901.97
2023-02-24T14:27:46.148Z,95908.75
2023-02-24T14:30:34.072Z,95902.44
2023-02-24T14:33:01.645Z,95907.56
2023-02-24T14:35:42.529Z,95912.22
2023-02-24T14:38:32.627Z,95913.84
2023-02-24T14:40:59.587Z,95906.72
2023-02-24T14:43:26.751Z,95907.72
2023-02-24T14:45:54.121Z,95907.38
2023-02-24T14:48:29.073Z,95901.25
2023-02-24T14:51:28.513Z,95900.59
2023-02-24T14:54:03.590Z,95892.56
2023-02-24T14:56:35.851Z,95894.41
2023-02-24T14:59:22.248Z,95887.28
2023-02-24T15:01:54.076Z,95877.69
2023-02-24T15:04:32.124Z,95882.81
2023-02-24T15:07:00.660Z,95886.47
2023-02-24T15:09:41.320Z,95872.38
2023-02-24T15:12:23.761Z,95860.97
2023-02-24T15:14:55.259Z,95853.22
2023-02-24T15:17:23.421Z,95849.09
2023-02-24T15:19:54.747Z,95849.09
2023-02-24T15:22:24.602Z,95834.22
2023-02-24T15:25:07.712Z,95844.00
2023-02-24T15:27:34.296Z,95842.53
2023-02-24T15:30:08.059Z,95836.22
2023-02-24T15:32:37.804Z,95825.00
2023-02-24T15:35:05.949Z,95831.13
2023-02-24T15:37:44.912Z,95832.94
2023-02-24T15:40:21.752Z,95836.41
2023-02-24T15:43:08.614Z,95828.47
2023-02-24T15:45:38.672Z,95804.00
2023-02-24T15:48:22.118Z,95808.13
2023-02-24T15:50:50.457Z,95809.13
2023-02-24T15:53:17.300Z,95804.81
2023-02-24T15:55:44.904Z,95800.34
2023-02-24T15:58:17.406Z,95798.34
2023-02-24T16:00:45.525Z,95799.34
2023-02-24T16:03:12.696Z,95795.88
2023-02-24T16:05:39.861Z,95795.44
2023-02-24T16:08:11.859Z,95784.00
2023-02-24T16:10:41.042Z,95792.16
2023-02-24T16:13:20.675Z,95794.59
2023-02-24T16:15:48.815Z,95789.50
2023-02-24T16:18:25.083Z,95784.00
2023-02-24T16:20:56.804Z,95782.19
2023-02-24T16:23:25.885Z,95776.72
2023-02-24T16:26:35.670Z,95785.03
2023-02-24T16:29:02.534Z,95772.41
2023-02-24T16:31:29.216Z,95766.13
2023-02-24T16:33:58.539Z,95763.47
2023-02-24T16:36:25.846Z,95773.25
2023-02-24T16:38:52.812Z,95781.81
2023-02-24T16:41:19.442Z,95777.34
2023-02-24T16:43:45.993Z,95775.69
2023-02-24T16:46:18.202Z,95773.06
2023-02-24T16:48:46.997Z,95774.06
2023-02-24T16:51:14.973Z,95767.13
2023-02-24T16:53:41.989Z,95768.41
2023-02-24T16:56:08.783Z,95765.09
2023-02-24T16:58:35.606Z,95750.88
2023-02-24T17:01:05.633Z,95752.88
2023-02-24T17:03:44.238Z,95753.50
2023-02-24T17:06:11.073Z,95744.75
2023-02-24T17:08:37.770Z,95752.50
2023-02-24T17:11:04.794Z,95745.19
2023-02-24T17:13:31.400Z,95744.00
2023-02-24T17:15:58.077Z,95748.09
2023-02-24T17:18:25.711Z,95741.53
2023-02-24T17:20:53.484Z,95745.81
2023-02-24T17:23:20.853Z,95755.78
2023-02-24T17:25:52.867Z,95759.06
2023-02-24T17:28:19.546Z,95751.13
2023-02-24T17:30:46.588Z,95761.09
2023-02-24T17:33:14.572Z,95758.44
2023-02-24T17:35:42.534Z,95746.84
2023-02-24T17:38:13.645Z,95744.38
2023-02-24T17:40:41.544Z,95739.91
2023-02-24T17:43:08.360Z,95750.69
2023-02-24T17:45:35.108Z,95752.13
2023-02-24T17:48:01.890Z,95748.84
2023-02-24T17:50:28.721Z,95751.50
2023-02-24T17:52:56.783Z,95747.84
2023-02-24T17:55:23.472Z,95741.09
2023-02-24T17:57:50.049Z,95751.50
2023-02-24T18:00:17.341Z,95756.97
2023-02-24T18:02:44.017Z,95753.97
2023-02-24T18:05:11.040Z,95749.66
2023-02-24T18:07:37.677Z,95744.56
2023-02-24T18:10:05.150Z,95739.44
2023-02-24T18:12:31.756Z,95738.44
2023-02-24T18:15:07.911Z,95744.56
2023-02-24T18:17:36.720Z,95731.31
2023-02-24T18:20:04.291Z,95734.97
2023-02-24T18:22:30.901Z,95728.84
2023-02-24T18:24:57.680Z,95736.81
2023-02-24T18:27:24.356Z,95732.31
2023-02-24T18:29:51.418Z,95722.38
2023-02-24T18:32:18.861Z,95734.59
2023-02-24T18:34:45.931Z,95734.59
2023-02-24T18:37:12.620Z,95739.06
2023-02-24T18:39:39.178Z,95735.78
2023-02-24T18:42:05.893Z,95728.03
2023-02-24T18:44:32.933Z,95727.47
2023-02-24T18:46:59.657Z,95713.22
2023-02-24T18:49:26.244Z,95717.06
2023-02-24T18:51:52.808Z,95707.88
2023-02-24T18:54:20.318Z,95708.88
2023-02-24T18:56:47.061Z,95706.41
2023-02-24T18:59:20.140Z,95704.31
2023-02-24T19:01:47.393Z,95705.34
2023-02-24T19:04:14.552Z,95707.97
2023-02-24T19:06:43.287Z,95710.81
2023-02-24T19:09:11.803Z,95715.28
2023-02-24T19:12:07.546Z,95711.75
2023-02-24T19:14:40.632Z,95702.16
2023-02-24T19:17:07.973Z,95707.91
2023-02-24T19:19:35.249Z,95703.81
2023-02-24T19:22:02.703Z,95713.75
2023-02-24T19:24:42.191Z,95704.53
2023-02-24T19:27:20.757Z,95707.56
2023-02-24T19:29:57.431Z,95705.91
2023-02-24T19:32:25.030Z,95710.22
2023-02-24T19:34:54.499Z,95711.84
2023-02-24T19:37:22.054Z,95707.81
2023-02-24T19:39:49.285Z,95705.19
2023-02-24T19:42:16.382Z,95701.25
2023-02-24T19:44:51.734Z,95702.09
2023-02-24T19:47:19.674Z,95713.03
2023-02-24T19:49:51.728Z,95708.53
2023-02-24T19:52:22.243Z,95705.50
2023-02-24T19:54:49.824Z,95692.69
2023-02-24T19:57:19.812Z,95689.00
2023-02-24T19:59:49.938Z,95686.16
2023-02-24T20:02:16.527Z,95682.69
2023-02-24T20:04:45.099Z,95674.56
2023-02-24T20:07:12.123Z,95675.56
2023-02-24T20:09:59.789Z,95682.44
2023-02-24T20:12:27.725Z,95678.78
2023-02-24T20:15:03.586Z,95676.69
2023-02-24T20:18:04.751Z,95682.63
2023-02-24T20:20:35.157Z,95669.66
2023-02-24T20:23:02.407Z,95680.41
2023-02-24T20:25:29.444Z,95675.38
2023-02-24T20:27:56.593Z,95675.38
2023-02-24T20:30:30.129Z,95669.88
2023-02-24T20:32:58.870Z,95677.00
2023-02-24T20:35:26.540Z,95673.75
2023-02-24T20:37:54.009Z,95675.56
2023-02-24T20:40:21.266Z,95675.31
2023-02-24T20:42:48.550Z,95671.03
2023-02-24T20:45:16.691Z,95669.19
2023-02-24T20:47:47.013Z,95674.50
2023-02-24T20:50:22.257Z,95665.16
2023-02-24T20:52:49.895Z,95667.56
2023-02-24T20:55:25.874Z,95696.47
2023-02-24T20:57:55.469Z,95707.50
2023-02-24T21:00:22.009Z,95714.81
2023-02-24T21:02:48.577Z,95709.72
2023-02-24T21:05:21.946Z,95709.72
2023-02-24T21:07:50.146Z,95701.78
2023-02-24T21:10:17.871Z,95709.72
2023-02-24T21:12:45.124Z,95701.78
2023-02-24T21:15:12.468Z,95703.59
2023-02-24T21:17:39.895Z,95698.31
2023-02-24T21:20:11.225Z,95714.81
2023-02-24T21:22:39.406Z,95713.81
2023-02-24T21:25:10.899Z,95717.28
2023-02-24T21:27:38.421Z,95706.06
2023-02-24T21:30:06.889Z,95703.22
2023-02-24T21:32:33.749Z,95699.13
2023-02-24T21:35:00.445Z,95701.97
2023-02-24T21:37:26.987Z,95691.38
2023-02-24T21:39:53.724Z,95698.31
2023-02-24T21:42:22.248Z,95698.13
2023-02-24T21:44:51.167Z,95706.06
2023-02-24T21:47:18.438Z,95705.06
2023-02-24T21:49:46.332Z,95703.41
2023-02-24T21:52:13.207Z,95710.06
2023-02-24T21:54:39.962Z,95715.75
2023-02-24T21:57:06.540Z,95718.38
2023-02-24T21:59:33.135Z,95732.81
2023-02-24T22:01:59.741Z,95729.97
2023-02-24T22:04:26.304Z,95750.31
2023-02-24T22:06:52.866Z,95754.78
2023-02-24T22:09:20.049Z,95759.25
2023-02-24T22:11:48.225Z,95752.34
2023-02-24T22:14:15.869Z,95755.16
2023-02-24T22:16:43.014Z,95764.28
2023-02-24T22:19:10.927Z,95770.41
2023-02-24T22:21:39.712Z,95776.69
2023-02-24T22:24:06.651Z,95793.38
2023-02-24T22:26:33.549Z,95801.50
2023-02-24T22:29:00.993Z,95801.88
2023-02-24T22:31:30.651Z,95784.34
2023-02-24T22:33:57.601Z,95783.72
2023-02-24T22:36:26.827Z,95787.34
2023-02-24T22:38:55.251Z,95782.72
2023-02-24T22:41:24.920Z,95785.53
2023-02-24T22:43:51.795Z,95788.38
2023-02-24T22:46:22.104Z,95794.66
2023-02-24T22:48:50.373Z,95789.38
2023-02-24T22:51:18.069Z,95776.97
2023-02-24T22:53:47.261Z,95773.50
2023-02-24T22:56:16.432Z,95764.56
2023-02-24T22:58:43.550Z,95775.50
2023-02-24T23:01:19.432Z,95766.75
2023-02-24T23:03:46.340Z,95767.56
2023-02-24T23:06:19.277Z,95757.16
2023-02-24T23:08:48.507Z,95766.75
2023-02-24T23:11:18.523Z,95771.22
2023-02-24T23:13:47.614Z,95778.16
2023-02-24T23:16:17.162Z,95792.19
2023-02-24T23:18:48.688Z,95784.44
2023-02-24T23:21:16.185Z,95792.38
2023-02-24T23:23:42.944Z,95801.31
2023-02-24T23:26:09.577Z,95808.25
2023-02-24T23:28:36.287Z,95810.25
2023-02-24T23:31:03.274Z,95791.56
2023-02-24T23:33:30.046Z,95803.31
2023-02-24T23:35:56.804Z,95798.84
2023-02-24T23:38:23.938Z,95798.66
2023-02-24T23:40:51.214Z,95811.25
2023-02-24T23:43:21.351Z,95820.19
2023-02-24T23:45:48.598Z,95830.78
2023-02-24T23:48:15.838Z,95826.13
2023-02-24T23:50:43.658Z,95822.00
2023-02-24T23:53:10.616Z,95829.75
2023-02-24T23:55:42.485Z,95833.41
2023-02-24T23:58:12.526Z,95828.66
